Cuttyhunk, Massachusetts
Current Conditions -  °F | °C
As of 5:42 AM on Sunday 21 Dec 2014 (Local Time) from KMVY Reporting Station
Overcast Overcast  
Wind Chill: 31°   Ceiling: 5000
Heat Index: 38°   Visibility: 10mi
Dew Point: 33°   Wind: 10mph
Humidity: 83%   Direction: 40°NE
Pressure: 30.24"   Gusts: NA
Location:  41.42°N, 70.93°W
Report Text: KMVY 211042Z AUTO 04009KT 10SM FEW028 OVC050 03/01 A3024 RMK AO2 T00330006
Loading
Personal Weather Stations






























Interactive Weather Map New forecast layout! Learn more

10-Day Weather Forecast

Advertisements
Track Severe Weather on mobile